createdAt,value
2017-09-25T00:00:25.083Z,82.85
2017-09-25T00:03:27.156Z,78.53
2017-09-25T00:06:29.448Z,53.45
2017-09-25T00:09:31.433Z,49.03
2017-09-25T00:12:33.797Z,65.10
2017-09-25T00:15:35.753Z,57.65
2017-09-25T00:18:38.125Z,51.42
2017-09-25T00:21:40.279Z,56.95
2017-09-25T00:24:42.626Z,75.80
2017-09-25T00:27:44.664Z,57.13
2017-09-25T00:30:47.061Z,53.70
2017-09-25T00:33:49.084Z,65.18
2017-09-25T00:36:51.439Z,58.87
2017-09-25T00:39:53.376Z,61.92
2017-09-25T00:42:55.781Z,73.03
2017-09-25T00:45:57.792Z,81.72
2017-09-25T00:49:00.143Z,83.25
2017-09-25T00:52:02.084Z,88.10
2017-09-25T00:55:16.337Z,97.47
2017-09-25T00:58:18.299Z,99.43
2017-09-25T01:01:20.640Z,95.87
2017-09-25T01:08:00.773Z,108.05
2017-09-25T01:11:02.741Z,102.65
2017-09-25T01:14:05.093Z,81.32
2017-09-25T01:17:07.060Z,98.20
2017-09-25T01:20:09.382Z,102.93
2017-09-25T01:23:11.328Z,78.35
2017-09-25T01:26:13.713Z,84.78
2017-09-25T01:29:15.688Z,65.85
2017-09-25T01:32:18.007Z,68.15
2017-09-25T01:35:20.044Z,69.57
2017-09-25T01:38:22.505Z,61.50
2017-09-25T01:41:24.455Z,44.63
2017-09-25T01:44:26.847Z,67.95
2017-09-25T01:47:28.793Z,67.80
2017-09-25T01:50:31.115Z,58.55
2017-09-25T01:53:33.065Z,56.13
2017-09-25T01:56:35.532Z,58.00
2017-09-25T01:59:37.476Z,57.65
2017-09-25T02:02:39.840Z,49.47
2017-09-25T02:05:41.949Z,62.22
2017-09-25T02:08:45.066Z,66.43
2017-09-25T02:11:47.025Z,73.60
2017-09-25T02:14:49.073Z,85.47
2017-09-25T02:17:51.213Z,82.35
2017-09-25T02:20:53.270Z,72.87
2017-09-25T02:23:55.265Z,64.87
2017-09-25T02:26:57.258Z,69.62
2017-09-25T02:29:59.302Z,71.53
2017-09-25T02:33:01.266Z,64.82
2017-09-25T02:36:03.229Z,63.25
2017-09-25T02:39:05.268Z,68.22
2017-09-25T02:42:07.259Z,83.82
2017-09-25T02:45:09.219Z,87.55
2017-09-25T02:48:11.920Z,76.60
2017-09-25T02:51:13.986Z,72.35
2017-09-25T02:54:15.927Z,73.95
2017-09-25T02:57:18.048Z,78.15
2017-09-25T03:00:20.837Z,88.03
2017-09-25T03:03:22.794Z,90.50
2017-09-25T03:06:24.743Z,84.68
2017-09-25T03:09:26.758Z,81.85
2017-09-25T03:12:28.792Z,78.62
2017-09-25T03:15:30.725Z,81.63
2017-09-25T03:18:34.288Z,85.15
2017-09-25T03:21:36.286Z,70.22
2017-09-25T03:24:39.088Z,87.50
2017-09-25T03:27:41.141Z,74.53
2017-09-25T03:30:43.081Z,80.65
2017-09-25T03:33:45.156Z,71.82
2017-09-25T03:36:47.135Z,75.35
2017-09-25T03:39:49.170Z,64.60
2017-09-25T03:42:51.211Z,67.53
2017-09-25T03:45:53.236Z,70.85
2017-09-25T03:48:55.854Z,75.70
2017-09-25T03:51:57.821Z,86.75
2017-09-25T03:55:00.624Z,89.47
2017-09-25T03:58:02.654Z,94.90
2017-09-25T04:01:04.612Z,88.15
2017-09-25T04:04:07.543Z,92.47
2017-09-25T04:07:09.497Z,77.35
2017-09-25T04:10:12.372Z,79.12
2017-09-25T04:13:15.171Z,88.80
2017-09-25T04:16:18.072Z,85.30
2017-09-25T04:19:20.103Z,85.85
2017-09-25T04:22:22.061Z,80.50
2017-09-25T04:25:24.739Z,89.18
2017-09-25T04:28:26.702Z,84.50
2017-09-25T04:31:28.700Z,82.82
2017-09-25T04:34:30.805Z,82.12
2017-09-25T04:37:34.325Z,75.18
2017-09-25T04:40:36.300Z,72.05
2017-09-25T04:43:38.342Z,86.95
2017-09-25T04:46:40.309Z,79.47
2017-09-25T04:49:42.391Z,77.47
2017-09-25T04:52:44.691Z,68.45
2017-09-25T04:55:46.642Z,80.60
2017-09-25T04:58:49.103Z,93.25
2017-09-25T05:01:51.044Z,77.22
2017-09-25T05:04:52.992Z,80.78
2017-09-25T05:07:54.950Z,78.35
2017-09-25T05:10:56.994Z,77.82
2017-09-25T05:13:59.056Z,80.68
2017-09-25T05:17:01.056Z,68.20
2017-09-25T05:20:03.052Z,72.70
2017-09-25T05:23:05.001Z,79.32
2017-09-25T05:26:07.049Z,64.85
2017-09-25T05:29:08.992Z,79.60
2017-09-25T05:32:11.053Z,68.93
2017-09-25T05:35:13.091Z,75.25
2017-09-25T05:38:15.032Z,64.43
2017-09-25T05:41:17.092Z,70.50
2017-09-25T05:44:19.037Z,69.55
2017-09-25T05:47:21.111Z,70.70
2017-09-25T05:50:23.042Z,80.45
2017-09-25T05:53:25.089Z,81.25
2017-09-25T05:56:27.028Z,72.68
2017-09-25T05:59:29.092Z,77.68
2017-09-25T06:02:31.419Z,92.53
2017-09-25T06:05:34.418Z,89.68
2017-09-25T06:08:36.776Z,90.00
2017-09-25T06:11:38.716Z,76.25
2017-09-25T06:14:40.712Z,88.37
2017-09-25T06:17:44.254Z,84.05
2017-09-25T06:20:46.208Z,84.05
2017-09-25T06:23:48.169Z,66.25
2017-09-25T06:26:50.125Z,72.28
2017-09-25T06:29:52.166Z,70.28
2017-09-25T06:32:54.406Z,70.50
2017-09-25T06:35:56.722Z,74.65
2017-09-25T06:38:59.542Z,69.82
2017-09-25T06:42:01.580Z,58.40
2017-09-25T06:45:03.528Z,60.22
2017-09-25T06:48:05.689Z,62.00
2017-09-25T06:51:07.746Z,58.28
2017-09-25T06:54:09.696Z,54.58
2017-09-25T06:57:11.730Z,59.95
2017-09-25T07:00:13.669Z,60.92
2017-09-25T07:03:15.733Z,61.70
2017-09-25T07:06:17.776Z,60.97
2017-09-25T07:09:19.844Z,62.60
2017-09-25T07:12:21.812Z,67.40
2017-09-25T07:15:23.768Z,61.70
2017-09-25T07:18:25.742Z,59.30
2017-09-25T07:21:28.539Z,58.30
2017-09-25T07:24:31.187Z,62.40
2017-09-25T07:27:34.465Z,64.70
2017-09-25T07:30:37.170Z,66.68
2017-09-25T07:33:39.520Z,61.72
2017-09-25T07:36:41.563Z,68.50
2017-09-25T07:39:43.919Z,66.00
2017-09-25T07:42:45.860Z,62.70
2017-09-25T07:45:48.138Z,56.95
2017-09-25T07:48:50.176Z,63.90
2017-09-25T07:51:52.523Z,61.20
2017-09-25T07:54:54.481Z,55.53
2017-09-25T07:57:56.865Z,54.78
2017-09-25T08:00:58.893Z,55.78
2017-09-25T08:04:01.250Z,53.28
2017-09-25T08:07:03.304Z,47.90
2017-09-25T08:10:05.681Z,50.95
2017-09-25T08:13:07.725Z,49.33
2017-09-25T08:16:10.058Z,49.05
2017-09-25T08:19:12.017Z,45.22
2017-09-25T08:22:14.471Z,47.92
2017-09-25T08:25:16.402Z,52.17
2017-09-25T08:28:18.784Z,42.38
2017-09-25T08:31:20.764Z,45.17
2017-09-25T08:34:23.087Z,45.70
2017-09-25T08:37:25.130Z,48.58
2017-09-25T08:40:27.484Z,44.33
2017-09-25T08:43:29.444Z,48.58
2017-09-25T08:46:31.843Z,43.22
2017-09-25T08:49:34.560Z,45.15
2017-09-25T08:52:36.919Z,42.20
2017-09-25T08:55:38.891Z,41.95
2017-09-25T08:58:41.229Z,45.47
2017-09-25T09:01:43.180Z,41.28
2017-09-25T09:04:46.174Z,43.40
2017-09-25T09:07:48.188Z,41.33
2017-09-25T09:10:50.597Z,42.80
2017-09-25T09:13:53.410Z,38.90
2017-09-25T09:16:55.772Z,39.30
2017-09-25T09:19:57.703Z,36.42
2017-09-25T09:23:00.079Z,42.20
2017-09-25T09:26:02.020Z,38.22
2017-09-25T09:29:04.385Z,38.53
2017-09-25T09:32:06.345Z,36.72
2017-09-25T09:35:08.704Z,33.85
2017-09-25T09:38:10.719Z,31.55
2017-09-25T09:41:13.105Z,37.40
2017-09-25T09:44:15.043Z,31.58
2017-09-25T09:47:17.508Z,35.70
2017-09-25T09:50:19.538Z,32.25
2017-09-25T09:53:21.920Z,33.58
2017-09-25T09:56:23.962Z,32.65
2017-09-25T09:59:26.328Z,33.20
2017-09-25T10:02:28.272Z,30.52
2017-09-25T10:05:30.640Z,34.20
2017-09-25T10:08:32.594Z,33.90
2017-09-25T10:11:35.037Z,35.05
2017-09-25T10:14:37.086Z,30.45
2017-09-25T10:17:39.456Z,33.50
2017-09-25T10:20:41.408Z,37.10
2017-09-25T10:23:43.764Z,35.08
2017-09-25T10:26:45.709Z,31.20
2017-09-25T10:29:48.059Z,31.65
2017-09-25T10:32:50.003Z,35.25
2017-09-25T10:35:52.379Z,35.00
2017-09-25T10:38:54.318Z,31.20
2017-09-25T10:41:56.701Z,32.70
2017-09-25T10:44:58.745Z,33.15
2017-09-25T10:48:01.089Z,30.67
2017-09-25T10:51:03.033Z,32.10
2017-09-25T10:54:05.390Z,31.20
2017-09-25T10:57:07.333Z,30.77
2017-09-25T11:00:09.708Z,28.50
2017-09-25T11:03:11.758Z,30.75
2017-09-25T11:06:14.121Z,32.17
2017-09-25T11:09:16.830Z,27.83
2017-09-25T11:12:19.949Z,33.20
2017-09-25T11:15:21.920Z,28.40
2017-09-25T11:18:25.167Z,29.80
2017-09-25T11:21:28.165Z,28.02
2017-09-25T11:24:30.499Z,30.00
2017-09-25T11:27:32.470Z,28.33
2017-09-25T11:30:34.906Z,29.40
2017-09-25T11:33:36.866Z,32.22
2017-09-25T11:36:39.227Z,34.08
2017-09-25T11:39:41.155Z,28.27
2017-09-25T11:42:43.524Z,30.08
2017-09-25T11:45:45.590Z,28.67
2017-09-25T11:48:47.936Z,26.27
2017-09-25T11:51:49.958Z,30.50
2017-09-25T11:54:52.359Z,24.87
2017-09-25T11:57:54.375Z,25.40
2017-09-25T12:00:56.741Z,21.33
2017-09-25T12:03:58.681Z,19.60
2017-09-25T12:07:01.058Z,18.35
2017-09-25T12:10:03.017Z,19.60
2017-09-25T12:13:06.156Z,16.55
2017-09-25T12:16:08.147Z,15.88
2017-09-25T12:19:10.484Z,16.70
2017-09-25T12:22:12.527Z,17.40
2017-09-25T12:25:14.888Z,16.12
2017-09-25T12:28:16.933Z,17.00
2017-09-25T12:31:19.240Z,14.93
2017-09-25T12:34:21.954Z,14.55
2017-09-25T12:37:24.317Z,13.95
2017-09-25T12:40:26.263Z,17.33
2017-09-25T12:43:28.638Z,18.95
2017-09-25T12:46:30.586Z,19.85
2017-09-25T12:49:32.939Z,16.35
2017-09-25T12:52:34.880Z,18.15
2017-09-25T12:55:37.256Z,17.00
2017-09-25T12:58:39.719Z,17.40
2017-09-25T13:01:42.080Z,19.52
2017-09-25T13:04:44.019Z,16.40
2017-09-25T13:07:46.374Z,24.12
2017-09-25T13:10:48.356Z,18.50
2017-09-25T13:13:50.661Z,16.95
2017-09-25T13:16:53.364Z,15.38
2017-09-25T13:19:55.690Z,14.13
2017-09-25T13:22:57.740Z,15.98
2017-09-25T13:26:00.015Z,16.87
2017-09-25T13:29:01.980Z,14.95
2017-09-25T13:32:04.343Z,18.08
2017-09-25T13:35:06.284Z,14.25
2017-09-25T13:38:08.663Z,13.13
2017-09-25T13:41:10.605Z,11.70
2017-09-25T13:44:12.960Z,10.13
2017-09-25T13:47:14.893Z,9.60
2017-09-25T13:50:17.269Z,16.98
2017-09-25T13:53:19.315Z,11.15
2017-09-25T13:56:21.675Z,14.90
2017-09-25T14:02:31.515Z,16.62
2017-09-25T14:05:33.523Z,14.23
2017-09-25T14:08:36.631Z,11.63
2017-09-25T14:11:38.579Z,12.02
2017-09-25T14:14:40.890Z,15.77
2017-09-25T14:17:43.606Z,12.45
2017-09-25T14:20:46.065Z,17.92
2017-09-25T14:23:48.033Z,18.12
2017-09-25T14:26:50.384Z,19.58
2017-09-25T14:29:52.318Z,16.85
2017-09-25T14:32:54.780Z,15.63
2017-09-25T14:35:56.735Z,15.68
2017-09-25T14:38:59.052Z,18.33
2017-09-25T14:42:01.029Z,16.02
2017-09-25T14:45:03.387Z,20.10
2017-09-25T14:48:05.457Z,22.33
2017-09-25T14:51:07.830Z,15.23
2017-09-25T14:54:10.601Z,22.40
2017-09-25T14:57:13.753Z,14.38
2017-09-25T15:00:15.792Z,16.85
2017-09-25T15:03:18.140Z,17.15
2017-09-25T15:06:20.087Z,23.35
2017-09-25T15:09:22.451Z,16.62
2017-09-25T15:12:24.602Z,15.32
2017-09-25T15:15:26.967Z,13.25
2017-09-25T15:18:28.907Z,21.62
2017-09-25T15:21:31.272Z,16.55
2017-09-25T15:24:33.386Z,13.15
2017-09-25T15:27:36.496Z,13.82
2017-09-25T15:30:38.536Z,17.77
2017-09-25T15:33:40.880Z,16.48
2017-09-25T15:36:42.840Z,18.62
2017-09-25T15:39:45.212Z,13.95
2017-09-25T15:42:47.152Z,19.10
2017-09-25T15:45:49.515Z,15.55
2017-09-25T15:48:51.557Z,15.18
2017-09-25T15:51:53.930Z,14.48
2017-09-25T15:54:55.977Z,15.50
2017-09-25T15:57:58.339Z,14.52
2017-09-25T16:01:00.293Z,14.75
2017-09-25T16:04:03.412Z,19.98
2017-09-25T16:07:06.132Z,16.87
2017-09-25T16:10:08.475Z,20.23
2017-09-25T16:13:10.426Z,18.65
2017-09-25T16:16:12.987Z,18.77
2017-09-25T16:19:14.953Z,18.08
2017-09-25T16:22:17.306Z,19.12
2017-09-25T16:25:20.040Z,20.35
2017-09-25T16:28:22.433Z,23.23
2017-09-25T16:31:24.481Z,18.90
2017-09-25T16:34:26.801Z,19.23
2017-09-25T16:37:28.786Z,19.55
2017-09-25T16:40:31.149Z,18.92
2017-09-25T16:43:33.194Z,19.02
2017-09-25T16:46:35.555Z,21.02
2017-09-25T16:49:37.487Z,15.68
2017-09-25T16:52:39.847Z,16.98
2017-09-25T16:55:41.795Z,14.50
2017-09-25T16:58:44.109Z,15.48
2017-09-25T17:01:46.918Z,15.73
2017-09-25T17:04:49.286Z,16.25
2017-09-25T17:07:51.232Z,19.10
2017-09-25T17:10:53.605Z,16.08
2017-09-25T17:13:55.550Z,17.30
2017-09-25T17:16:57.895Z,16.73
2017-09-25T17:19:59.842Z,14.40
2017-09-25T17:23:02.251Z,15.50
2017-09-25T17:26:04.253Z,19.42
2017-09-25T17:29:06.587Z,16.15
2017-09-25T17:32:09.491Z,21.37
2017-09-25T17:35:11.855Z,15.73
2017-09-25T17:38:13.883Z,17.87
2017-09-25T17:41:16.266Z,17.33
2017-09-25T17:44:18.225Z,18.27
2017-09-25T17:47:20.561Z,17.73
2017-09-25T17:50:22.638Z,18.27
2017-09-25T17:53:25.264Z,20.00
2017-09-25T17:56:27.218Z,26.77
2017-09-25T17:59:29.598Z,18.70
2017-09-25T18:02:31.543Z,23.35
2017-09-25T18:05:33.903Z,17.83
2017-09-25T18:08:35.878Z,18.65
2017-09-25T18:11:39.719Z,17.65
2017-09-25T18:14:41.680Z,18.52
2017-09-25T18:17:44.126Z,19.83
2017-09-25T18:20:46.098Z,18.85
2017-09-25T18:23:48.453Z,21.52
2017-09-25T18:26:50.502Z,19.55
2017-09-25T18:29:52.787Z,20.40
2017-09-25T18:32:54.989Z,19.67
2017-09-25T18:35:57.637Z,21.90
2017-09-25T18:39:00.442Z,18.08
2017-09-25T18:42:02.796Z,19.60
2017-09-25T18:45:04.748Z,20.48
2017-09-25T18:48:07.113Z,19.92
2017-09-25T18:51:09.163Z,21.52
2017-09-25T18:54:11.446Z,20.62
2017-09-25T18:57:13.493Z,34.95
2017-09-25T19:00:15.823Z,189.57
2017-09-25T19:03:17.772Z,52.80
2017-09-25T19:06:20.137Z,30.70
2017-09-25T19:09:22.095Z,23.95
2017-09-25T19:12:24.426Z,23.33
2017-09-25T19:15:26.498Z,25.88
2017-09-25T19:18:28.840Z,22.75
2017-09-25T19:21:30.806Z,24.08
2017-09-25T19:24:33.180Z,24.40
2017-09-25T19:27:35.120Z,29.30
2017-09-25T19:30:37.441Z,21.48
2017-09-25T19:33:39.384Z,23.27
2017-09-25T19:36:41.772Z,30.80
2017-09-25T19:39:43.808Z,21.30
2017-09-25T19:42:46.154Z,21.45
2017-09-25T19:45:48.099Z,21.77
2017-09-25T19:48:50.494Z,20.88
2017-09-25T19:51:52.615Z,22.25
2017-09-25T19:54:55.089Z,21.25
2017-09-25T19:57:57.046Z,23.67
2017-09-25T20:00:59.347Z,21.50
2017-09-25T20:04:02.270Z,23.10
2017-09-25T20:07:04.634Z,21.35
2017-09-25T20:10:06.601Z,21.05
2017-09-25T20:13:08.941Z,22.58
2017-09-25T20:16:11.275Z,22.87
2017-09-25T20:19:13.646Z,22.02
2017-09-25T20:22:15.615Z,21.62
2017-09-25T20:25:18.854Z,22.65
2017-09-25T20:28:20.997Z,20.52
2017-09-25T20:31:24.131Z,23.87
2017-09-25T20:34:26.962Z,21.48
2017-09-25T20:37:29.290Z,22.20
2017-09-25T20:40:31.247Z,23.90
2017-09-25T20:43:33.580Z,23.27
2017-09-25T20:46:35.619Z,26.77
2017-09-25T20:49:38.824Z,24.08
2017-09-25T20:52:40.768Z,22.77
2017-09-25T20:55:43.092Z,23.00
2017-09-25T20:58:45.911Z,23.98
2017-09-25T21:01:48.294Z,24.23
2017-09-25T21:04:50.325Z,24.67
2017-09-25T21:07:52.795Z,23.98
2017-09-25T21:10:54.830Z,25.27
2017-09-25T21:13:57.308Z,25.52
2017-09-25T21:16:59.258Z,25.88
2017-09-25T21:20:01.635Z,28.92
2017-09-25T21:23:03.680Z,25.50
2017-09-25T21:26:06.045Z,26.40
2017-09-25T21:29:08.183Z,26.23
2017-09-25T21:32:10.512Z,28.75
2017-09-25T21:35:12.448Z,25.77
2017-09-25T21:38:14.827Z,26.77
2017-09-25T21:41:16.788Z,28.48
2017-09-25T21:44:19.131Z,28.38
2017-09-25T21:47:21.149Z,27.15
2017-09-25T21:50:24.247Z,31.80
2017-09-25T21:53:26.213Z,31.60
2017-09-25T21:56:28.570Z,33.40
2017-09-25T21:59:30.620Z,31.48
2017-09-25T22:02:32.976Z,33.42
2017-09-25T22:05:34.967Z,30.88
2017-09-25T22:08:36.977Z,30.40
2017-09-25T22:11:39.021Z,33.25
2017-09-25T22:14:41.408Z,41.10
2017-09-25T22:17:43.419Z,35.67
2017-09-25T22:20:45.908Z,32.25
2017-09-25T22:23:48.036Z,33.47
2017-09-25T22:26:50.403Z,40.92
2017-09-25T22:29:52.451Z,35.97
2017-09-25T22:32:54.800Z,35.63
2017-09-25T22:35:56.732Z,36.75
2017-09-25T22:38:59.102Z,37.58
2017-09-25T22:42:01.717Z,35.67
2017-09-25T22:45:04.059Z,38.13
2017-09-25T22:48:05.998Z,38.33
2017-09-25T22:51:09.147Z,38.10
2017-09-25T22:54:12.079Z,36.45
2017-09-25T22:57:14.486Z,37.90
2017-09-25T23:00:16.426Z,36.17
2017-09-25T23:03:18.806Z,35.53
2017-09-25T23:06:20.870Z,35.13
2017-09-25T23:09:23.222Z,43.10
2017-09-25T23:12:25.187Z,34.38
2017-09-25T23:15:27.503Z,36.58
2017-09-25T23:18:29.466Z,34.92
2017-09-25T23:21:31.807Z,35.00
2017-09-25T23:24:33.749Z,40.25
2017-09-25T23:27:36.131Z,34.88
2017-09-25T23:30:38.137Z,34.03
2017-09-25T23:33:41.244Z,37.33
2017-09-25T23:36:43.189Z,35.92
2017-09-25T23:39:45.552Z,34.75
2017-09-25T23:42:47.479Z,30.48
2017-09-25T23:45:49.852Z,33.85
2017-09-25T23:48:51.798Z,31.42
2017-09-25T23:51:54.161Z,33.80
2017-09-25T23:54:56.136Z,31.92
2017-09-25T23:57:58.405Z,34.15
